sensor_id;sensor_type;location;lat;lon;timestamp;P1;durP1;ratioP1;P2;durP2;ratioP2
24483;SDS011;12643;51.620;7.548;2023-06-26T00:01:01;8.38;;;7.57;;
24483;SDS011;12643;51.620;7.548;2023-06-26T00:03:30;10.93;;;7.72;;
24483;SDS011;12643;51.620;7.548;2023-06-26T00:05:58;8.27;;;7.40;;
24483;SDS011;12643;51.620;7.548;2023-06-26T00:08:26;9.57;;;8.68;;
24483;SDS011;12643;51.620;7.548;2023-06-26T00:10:56;9.48;;;8.48;;
24483;SDS011;12643;51.620;7.548;2023-06-26T00:13:24;9.05;;;8.13;;
24483;SDS011;12643;51.620;7.548;2023-06-26T00:15:52;8.70;;;7.90;;
24483;SDS011;12643;51.620;7.548;2023-06-26T00:18:20;8.40;;;7.60;;
24483;SDS011;12643;51.620;7.548;2023-06-26T00:20:48;8.27;;;7.47;;
24483;SDS011;12643;51.620;7.548;2023-06-26T00:23:16;7.53;;;6.82;;
24483;SDS011;12643;51.620;7.548;2023-06-26T00:25:44;8.73;;;7.55;;
24483;SDS011;12643;51.620;7.548;2023-06-26T00:28:14;8.10;;;7.30;;
24483;SDS011;12643;51.620;7.548;2023-06-26T00:30:43;7.55;;;6.85;;
24483;SDS011;12643;51.620;7.548;2023-06-26T00:33:11;8.52;;;7.63;;
24483;SDS011;12643;51.620;7.548;2023-06-26T00:35:39;8.38;;;7.57;;
24483;SDS011;12643;51.620;7.548;2023-06-26T00:38:07;10.48;;;8.02;;
24483;SDS011;12643;51.620;7.548;2023-06-26T00:40:35;8.45;;;7.60;;
24483;SDS011;12643;51.620;7.548;2023-06-26T00:43:03;8.18;;;7.25;;
24483;SDS011;12643;51.620;7.548;2023-06-26T00:45:32;8.60;;;7.72;;
24483;SDS011;12643;51.620;7.548;2023-06-26T00:48:00;9.57;;;8.02;;
24483;SDS011;12643;51.620;7.548;2023-06-26T00:50:29;7.90;;;7.15;;
24483;SDS011;12643;51.620;7.548;2023-06-26T00:52:57;9.13;;;8.20;;
24483;SDS011;12643;51.620;7.548;2023-06-26T00:55:27;8.63;;;7.72;;
24483;SDS011;12643;51.620;7.548;2023-06-26T00:57:55;9.35;;;8.35;;
24483;SDS011;12643;51.620;7.548;2023-06-26T01:00:23;8.95;;;8.15;;
24483;SDS011;12643;51.620;7.548;2023-06-26T01:02:56;9.23;;;8.02;;
24483;SDS011;12643;51.620;7.548;2023-06-26T01:05:24;9.65;;;7.05;;
24483;SDS011;12643;51.620;7.548;2023-06-26T01:07:53;9.85;;;6.75;;
24483;SDS011;12643;51.620;7.548;2023-06-26T01:10:21;9.13;;;7.32;;
24483;SDS011;12643;51.620;7.548;2023-06-26T01:12:53;7.85;;;7.18;;
24483;SDS011;12643;51.620;7.548;2023-06-26T01:15:21;9.20;;;7.57;;
24483;SDS011;12643;51.620;7.548;2023-06-26T01:17:49;8.18;;;7.38;;
24483;SDS011;12643;51.620;7.548;2023-06-26T01:20:19;9.25;;;7.75;;
24483;SDS011;12643;51.620;7.548;2023-06-26T01:22:48;10.63;;;8.10;;
24483;SDS011;12643;51.620;7.548;2023-06-26T01:25:26;8.38;;;7.55;;
24483;SDS011;12643;51.620;7.548;2023-06-26T01:28:05;9.15;;;8.10;;
24483;SDS011;12643;51.620;7.548;2023-06-26T01:30:34;9.50;;;7.72;;
24483;SDS011;12643;51.620;7.548;2023-06-26T01:33:05;8.82;;;7.40;;
24483;SDS011;12643;51.620;7.548;2023-06-26T01:35:34;8.10;;;6.90;;
24483;SDS011;12643;51.620;7.548;2023-06-26T01:38:11;7.70;;;6.90;;
24483;SDS011;12643;51.620;7.548;2023-06-26T01:40:40;9.57;;;6.95;;
24483;SDS011;12643;51.620;7.548;2023-06-26T01:43:11;7.28;;;6.57;;
24483;SDS011;12643;51.620;7.548;2023-06-26T01:45:47;7.45;;;6.60;;
24483;SDS011;12643;51.620;7.548;2023-06-26T01:48:18;7.85;;;7.05;;
24483;SDS011;12643;51.620;7.548;2023-06-26T01:50:51;8.45;;;7.03;;
24483;SDS011;12643;51.620;7.548;2023-06-26T01:53:21;7.53;;;6.82;;
24483;SDS011;12643;51.620;7.548;2023-06-26T01:55:53;10.05;;;7.75;;
24483;SDS011;12643;51.620;7.548;2023-06-26T01:58:28;10.10;;;6.78;;
24483;SDS011;12643;51.620;7.548;2023-06-26T02:00:57;8.47;;;7.40;;
24483;SDS011;12643;51.620;7.548;2023-06-26T02:03:25;8.27;;;6.93;;
24483;SDS011;12643;51.620;7.548;2023-06-26T02:05:53;9.77;;;7.35;;
24483;SDS011;12643;51.620;7.548;2023-06-26T02:08:21;10.52;;;7.43;;
24483;SDS011;12643;51.620;7.548;2023-06-26T02:10:49;9.48;;;7.15;;
24483;SDS011;12643;51.620;7.548;2023-06-26T02:13:17;10.75;;;6.97;;
24483;SDS011;12643;51.620;7.548;2023-06-26T02:15:47;8.95;;;7.18;;
24483;SDS011;12643;51.620;7.548;2023-06-26T02:18:15;10.63;;;7.80;;
24483;SDS011;12643;51.620;7.548;2023-06-26T02:20:43;9.70;;;7.53;;
24483;SDS011;12643;51.620;7.548;2023-06-26T02:23:11;13.18;;;8.05;;
24483;SDS011;12643;51.620;7.548;2023-06-26T02:25:39;7.30;;;6.55;;
24483;SDS011;12643;51.620;7.548;2023-06-26T02:28:07;8.07;;;7.28;;
24483;SDS011;12643;51.620;7.548;2023-06-26T02:30:35;8.70;;;7.28;;
24483;SDS011;12643;51.620;7.548;2023-06-26T02:33:04;11.65;;;7.78;;
24483;SDS011;12643;51.620;7.548;2023-06-26T02:35:32;11.18;;;7.25;;
24483;SDS011;12643;51.620;7.548;2023-06-26T02:37:59;7.50;;;6.80;;
24483;SDS011;12643;51.620;7.548;2023-06-26T02:40:27;7.93;;;7.13;;
24483;SDS011;12643;51.620;7.548;2023-06-26T02:42:55;11.07;;;7.53;;
24483;SDS011;12643;51.620;7.548;2023-06-26T02:45:23;7.45;;;6.75;;
24483;SDS011;12643;51.620;7.548;2023-06-26T02:47:51;8.15;;;7.35;;
24483;SDS011;12643;51.620;7.548;2023-06-26T02:50:21;8.90;;;7.03;;
24483;SDS011;12643;51.620;7.548;2023-06-26T02:52:48;9.93;;;7.20;;
24483;SDS011;12643;51.620;7.548;2023-06-26T02:55:18;8.00;;;7.20;;
24483;SDS011;12643;51.620;7.548;2023-06-26T02:57:46;7.85;;;7.07;;
24483;SDS011;12643;51.620;7.548;2023-06-26T03:00:14;8.15;;;6.70;;
24483;SDS011;12643;51.620;7.548;2023-06-26T03:02:42;7.45;;;6.72;;
24483;SDS011;12643;51.620;7.548;2023-06-26T03:05:10;9.00;;;6.68;;
24483;SDS011;12643;51.620;7.548;2023-06-26T03:07:40;8.35;;;6.68;;
24483;SDS011;12643;51.620;7.548;2023-06-26T03:10:08;10.30;;;7.50;;
24483;SDS011;12643;51.620;7.548;2023-06-26T03:12:36;12.23;;;7.10;;
24483;SDS011;12643;51.620;7.548;2023-06-26T03:15:04;11.02;;;7.18;;
24483;SDS011;12643;51.620;7.548;2023-06-26T03:17:32;8.02;;;7.18;;
24483;SDS011;12643;51.620;7.548;2023-06-26T03:20:00;7.88;;;7.10;;
24483;SDS011;12643;51.620;7.548;2023-06-26T03:22:31;10.07;;;7.60;;
24483;SDS011;12643;51.620;7.548;2023-06-26T03:25:01;10.30;;;7.38;;
24483;SDS011;12643;51.620;7.548;2023-06-26T03:27:28;10.38;;;6.97;;
24483;SDS011;12643;51.620;7.548;2023-06-26T03:29:56;8.45;;;7.65;;
24483;SDS011;12643;51.620;7.548;2023-06-26T03:32:24;9.18;;;7.03;;
24483;SDS011;12643;51.620;7.548;2023-06-26T03:34:52;9.68;;;6.97;;
24483;SDS011;12643;51.620;7.548;2023-06-26T03:37:20;8.88;;;7.82;;
24483;SDS011;12643;51.620;7.548;2023-06-26T03:39:48;8.68;;;7.15;;
24483;SDS011;12643;51.620;7.548;2023-06-26T03:42:17;9.82;;;7.38;;
24483;SDS011;12643;51.620;7.548;2023-06-26T03:44:45;8.07;;;6.82;;
24483;SDS011;12643;51.620;7.548;2023-06-26T03:47:13;9.02;;;7.13;;
24483;SDS011;12643;51.620;7.548;2023-06-26T03:49:41;8.68;;;7.00;;
24483;SDS011;12643;51.620;7.548;2023-06-26T03:52:09;9.10;;;7.13;;
24483;SDS011;12643;51.620;7.548;2023-06-26T03:54:36;10.15;;;6.97;;
24483;SDS011;12643;51.620;7.548;2023-06-26T03:57:04;8.20;;;7.13;;
24483;SDS011;12643;51.620;7.548;2023-06-26T03:59:34;9.95;;;7.50;;
24483;SDS011;12643;51.620;7.548;2023-06-26T04:02:02;7.15;;;6.47;;
24483;SDS011;12643;51.620;7.548;2023-06-26T04:04:30;8.02;;;7.25;;
24483;SDS011;12643;51.620;7.548;2023-06-26T04:06:58;10.18;;;7.50;;
24483;SDS011;12643;51.620;7.548;2023-06-26T04:09:26;8.23;;;7.43;;
24483;SDS011;12643;51.620;7.548;2023-06-26T04:11:54;8.43;;;7.38;;
24483;SDS011;12643;51.620;7.548;2023-06-26T04:14:22;8.18;;;7.38;;
24483;SDS011;12643;51.620;7.548;2023-06-26T04:16:51;8.77;;;7.88;;
24483;SDS011;12643;51.620;7.548;2023-06-26T04:19:19;8.25;;;6.47;;
24483;SDS011;12643;51.620;7.548;2023-06-26T04:21:47;9.88;;;6.82;;
24483;SDS011;12643;51.620;7.548;2023-06-26T04:24:15;8.52;;;6.38;;
24483;SDS011;12643;51.620;7.548;2023-06-26T04:26:43;8.18;;;6.65;;
24483;SDS011;12643;51.620;7.548;2023-06-26T04:29:11;9.32;;;6.97;;
24483;SDS011;12643;51.620;7.548;2023-06-26T04:31:39;10.52;;;6.70;;
24483;SDS011;12643;51.620;7.548;2023-06-26T04:34:13;8.77;;;7.00;;
24483;SDS011;12643;51.620;7.548;2023-06-26T04:36:41;11.27;;;6.25;;
24483;SDS011;12643;51.620;7.548;2023-06-26T04:39:13;9.07;;;6.70;;
24483;SDS011;12643;51.620;7.548;2023-06-26T04:41:41;7.93;;;6.43;;
24483;SDS011;12643;51.620;7.548;2023-06-26T04:44:09;7.53;;;6.72;;
24483;SDS011;12643;51.620;7.548;2023-06-26T04:46:37;8.38;;;6.97;;
24483;SDS011;12643;51.620;7.548;2023-06-26T04:49:06;9.95;;;8.13;;
24483;SDS011;12643;51.620;7.548;2023-06-26T04:51:36;13.38;;;7.63;;
24483;SDS011;12643;51.620;7.548;2023-06-26T04:54:06;14.63;;;7.82;;
24483;SDS011;12643;51.620;7.548;2023-06-26T04:56:34;10.85;;;8.38;;
24483;SDS011;12643;51.620;7.548;2023-06-26T04:59:02;13.27;;;8.13;;
24483;SDS011;12643;51.620;7.548;2023-06-26T05:01:30;12.63;;;7.03;;
24483;SDS011;12643;51.620;7.548;2023-06-26T05:03:58;10.82;;;6.82;;
24483;SDS011;12643;51.620;7.548;2023-06-26T05:06:26;9.48;;;6.88;;
24483;SDS011;12643;51.620;7.548;2023-06-26T05:08:55;10.07;;;7.50;;
24483;SDS011;12643;51.620;7.548;2023-06-26T05:11:24;9.98;;;7.07;;
24483;SDS011;12643;51.620;7.548;2023-06-26T05:13:52;9.65;;;7.78;;
24483;SDS011;12643;51.620;7.548;2023-06-26T05:16:20;11.90;;;8.43;;
24483;SDS011;12643;51.620;7.548;2023-06-26T05:18:48;13.30;;;7.57;;
24483;SDS011;12643;51.620;7.548;2023-06-26T05:21:16;10.10;;;8.13;;
24483;SDS011;12643;51.620;7.548;2023-06-26T05:23:44;10.32;;;8.05;;
24483;SDS011;12643;51.620;7.548;2023-06-26T05:26:14;10.60;;;7.88;;
24483;SDS011;12643;51.620;7.548;2023-06-26T05:28:43;11.75;;;7.43;;
24483;SDS011;12643;51.620;7.548;2023-06-26T05:31:14;14.55;;;7.68;;
24483;SDS011;12643;51.620;7.548;2023-06-26T05:33:43;11.52;;;7.45;;
24483;SDS011;12643;51.620;7.548;2023-06-26T05:36:12;9.75;;;8.40;;
24483;SDS011;12643;51.620;7.548;2023-06-26T05:39:01;9.02;;;8.13;;
24483;SDS011;12643;51.620;7.548;2023-06-26T05:41:31;10.90;;;7.65;;
24483;SDS011;12643;51.620;7.548;2023-06-26T05:43:59;10.45;;;6.50;;
24483;SDS011;12643;51.620;7.548;2023-06-26T05:46:27;12.98;;;7.60;;
24483;SDS011;12643;51.620;7.548;2023-06-26T05:48:56;14.98;;;7.05;;
24483;SDS011;12643;51.620;7.548;2023-06-26T05:51:24;11.43;;;7.40;;
24483;SDS011;12643;51.620;7.548;2023-06-26T05:53:53;10.82;;;7.05;;
24483;SDS011;12643;51.620;7.548;2023-06-26T05:56:21;13.05;;;7.28;;
24483;SDS011;12643;51.620;7.548;2023-06-26T05:58:51;11.80;;;7.07;;
24483;SDS011;12643;51.620;7.548;2023-06-26T06:01:20;8.98;;;7.20;;
24483;SDS011;12643;51.620;7.548;2023-06-26T06:03:48;12.05;;;7.00;;
24483;SDS011;12643;51.620;7.548;2023-06-26T06:06:17;8.85;;;7.03;;
24483;SDS011;12643;51.620;7.548;2023-06-26T06:08:45;12.15;;;7.70;;
24483;SDS011;12643;51.620;7.548;2023-06-26T06:11:12;15.48;;;8.65;;
24483;SDS011;12643;51.620;7.548;2023-06-26T06:13:40;13.73;;;8.63;;
24483;SDS011;12643;51.620;7.548;2023-06-26T06:16:10;13.10;;;8.82;;
24483;SDS011;12643;51.620;7.548;2023-06-26T06:18:38;14.63;;;7.88;;
24483;SDS011;12643;51.620;7.548;2023-06-26T06:21:06;16.58;;;7.40;;
24483;SDS011;12643;51.620;7.548;2023-06-26T06:23:33;16.67;;;6.70;;
24483;SDS011;12643;51.620;7.548;2023-06-26T06:26:01;12.05;;;7.47;;
24483;SDS011;12643;51.620;7.548;2023-06-26T06:28:29;13.93;;;6.88;;
24483;SDS011;12643;51.620;7.548;2023-06-26T06:30:59;10.88;;;6.85;;
24483;SDS011;12643;51.620;7.548;2023-06-26T06:33:28;11.63;;;7.40;;
24483;SDS011;12643;51.620;7.548;2023-06-26T06:35:56;12.55;;;7.30;;
24483;SDS011;12643;51.620;7.548;2023-06-26T06:38:24;16.77;;;7.45;;
24483;SDS011;12643;51.620;7.548;2023-06-26T06:40:52;11.95;;;7.20;;
24483;SDS011;12643;51.620;7.548;2023-06-26T06:43:20;16.25;;;7.38;;
24483;SDS011;12643;51.620;7.548;2023-06-26T06:45:48;13.38;;;7.35;;
24483;SDS011;12643;51.620;7.548;2023-06-26T06:48:16;14.80;;;7.18;;
24483;SDS011;12643;51.620;7.548;2023-06-26T06:50:45;16.90;;;6.35;;
24483;SDS011;12643;51.620;7.548;2023-06-26T06:53:13;10.32;;;6.70;;
24483;SDS011;12643;51.620;7.548;2023-06-26T06:55:41;17.92;;;7.10;;
24483;SDS011;12643;51.620;7.548;2023-06-26T06:58:09;13.35;;;6.57;;
24483;SDS011;12643;51.620;7.548;2023-06-26T07:00:37;15.77;;;6.82;;
24483;SDS011;12643;51.620;7.548;2023-06-26T07:03:04;10.88;;;7.38;;
24483;SDS011;12643;51.620;7.548;2023-06-26T07:05:32;15.10;;;7.53;;
24483;SDS011;12643;51.620;7.548;2023-06-26T07:08:02;18.65;;;7.32;;
24483;SDS011;12643;51.620;7.548;2023-06-26T07:10:30;13.30;;;7.40;;
24483;SDS011;12643;51.620;7.548;2023-06-26T07:12:58;16.55;;;7.18;;
24483;SDS011;12643;51.620;7.548;2023-06-26T07:15:27;19.98;;;7.93;;
24483;SDS011;12643;51.620;7.548;2023-06-26T07:17:55;13.05;;;7.20;;
24483;SDS011;12643;51.620;7.548;2023-06-26T07:20:23;10.77;;;6.82;;
24483;SDS011;12643;51.620;7.548;2023-06-26T07:22:52;15.82;;;8.02;;
24483;SDS011;12643;51.620;7.548;2023-06-26T07:25:21;17.02;;;7.40;;
24483;SDS011;12643;51.620;7.548;2023-06-26T07:27:49;12.90;;;7.15;;
24483;SDS011;12643;51.620;7.548;2023-06-26T07:30:17;14.25;;;7.35;;
24483;SDS011;12643;51.620;7.548;2023-06-26T07:32:45;17.75;;;7.78;;
24483;SDS011;12643;51.620;7.548;2023-06-26T07:35:14;14.57;;;8.63;;
24483;SDS011;12643;51.620;7.548;2023-06-26T07:37:43;13.50;;;7.25;;
24483;SDS011;12643;51.620;7.548;2023-06-26T07:40:11;15.63;;;7.53;;
24483;SDS011;12643;51.620;7.548;2023-06-26T07:42:44;17.70;;;8.15;;
24483;SDS011;12643;51.620;7.548;2023-06-26T07:45:13;12.52;;;6.93;;
24483;SDS011;12643;51.620;7.548;2023-06-26T07:47:45;13.27;;;7.00;;
24483;SDS011;12643;51.620;7.548;2023-06-26T07:50:13;13.52;;;6.82;;
24483;SDS011;12643;51.620;7.548;2023-06-26T07:52:47;13.23;;;7.30;;
24483;SDS011;12643;51.620;7.548;2023-06-26T07:55:15;14.15;;;7.57;;
24483;SDS011;12643;51.620;7.548;2023-06-26T07:57:46;15.18;;;7.25;;
24483;SDS011;12643;51.620;7.548;2023-06-26T08:00:17;14.35;;;6.57;;
24483;SDS011;12643;51.620;7.548;2023-06-26T08:02:47;10.48;;;7.10;;
24483;SDS011;12643;51.620;7.548;2023-06-26T08:05:17;17.38;;;6.82;;
24483;SDS011;12643;51.620;7.548;2023-06-26T08:07:46;13.45;;;7.20;;
24483;SDS011;12643;51.620;7.548;2023-06-26T08:10:14;15.45;;;7.30;;
24483;SDS011;12643;51.620;7.548;2023-06-26T08:12:42;12.50;;;7.25;;
24483;SDS011;12643;51.620;7.548;2023-06-26T08:15:13;13.63;;;7.47;;
24483;SDS011;12643;51.620;7.548;2023-06-26T08:17:41;12.93;;;7.93;;
24483;SDS011;12643;51.620;7.548;2023-06-26T08:20:11;13.77;;;6.90;;
24483;SDS011;12643;51.620;7.548;2023-06-26T08:22:39;12.45;;;6.68;;
24483;SDS011;12643;51.620;7.548;2023-06-26T08:25:07;17.35;;;8.07;;
24483;SDS011;12643;51.620;7.548;2023-06-26T08:27:36;11.10;;;7.53;;
24483;SDS011;12643;51.620;7.548;2023-06-26T08:30:04;16.45;;;7.68;;
24483;SDS011;12643;51.620;7.548;2023-06-26T08:32:34;12.55;;;7.88;;
24483;SDS011;12643;51.620;7.548;2023-06-26T08:35:03;14.38;;;8.18;;
24483;SDS011;12643;51.620;7.548;2023-06-26T08:37:31;11.45;;;7.93;;
24483;SDS011;12643;51.620;7.548;2023-06-26T08:39:59;14.63;;;8.07;;
24483;SDS011;12643;51.620;7.548;2023-06-26T08:42:27;12.32;;;6.90;;
24483;SDS011;12643;51.620;7.548;2023-06-26T08:44:55;16.02;;;7.88;;
24483;SDS011;12643;51.620;7.548;2023-06-26T08:47:24;23.45;;;7.80;;
24483;SDS011;12643;51.620;7.548;2023-06-26T08:49:56;15.73;;;6.65;;
24483;SDS011;12643;51.620;7.548;2023-06-26T08:52:32;14.85;;;7.53;;
24483;SDS011;12643;51.620;7.548;2023-06-26T08:55:05;11.38;;;7.40;;
24483;SDS011;12643;51.620;7.548;2023-06-26T08:57:37;13.00;;;7.60;;
24483;SDS011;12643;51.620;7.548;2023-06-26T09:00:06;16.83;;;6.78;;
24483;SDS011;12643;51.620;7.548;2023-06-26T09:02:35;15.68;;;6.65;;
24483;SDS011;12643;51.620;7.548;2023-06-26T09:05:05;18.10;;;7.80;;
24483;SDS011;12643;51.620;7.548;2023-06-26T09:07:34;15.65;;;6.53;;
24483;SDS011;12643;51.620;7.548;2023-06-26T09:10:01;12.18;;;6.40;;
24483;SDS011;12643;51.620;7.548;2023-06-26T09:12:30;17.80;;;6.95;;
24483;SDS011;12643;51.620;7.548;2023-06-26T09:15:00;13.73;;;6.72;;
24483;SDS011;12643;51.620;7.548;2023-06-26T09:17:29;14.13;;;7.47;;
24483;SDS011;12643;51.620;7.548;2023-06-26T09:20:00;17.42;;;7.18;;
24483;SDS011;12643;51.620;7.548;2023-06-26T09:22:29;13.52;;;7.00;;
24483;SDS011;12643;51.620;7.548;2023-06-26T09:25:00;13.00;;;6.00;;
24483;SDS011;12643;51.620;7.548;2023-06-26T09:27:29;15.00;;;7.30;;
24483;SDS011;12643;51.620;7.548;2023-06-26T09:29:57;14.32;;;7.10;;
24483;SDS011;12643;51.620;7.548;2023-06-26T09:32:25;9.82;;;6.78;;
24483;SDS011;12643;51.620;7.548;2023-06-26T09:34:54;14.23;;;6.90;;
24483;SDS011;12643;51.620;7.548;2023-06-26T09:37:23;17.65;;;6.40;;
24483;SDS011;12643;51.620;7.548;2023-06-26T09:39:53;12.77;;;6.70;;
24483;SDS011;12643;51.620;7.548;2023-06-26T09:42:23;15.40;;;6.18;;
24483;SDS011;12643;51.620;7.548;2023-06-26T09:44:51;14.00;;;6.03;;
24483;SDS011;12643;51.620;7.548;2023-06-26T09:47:21;12.20;;;6.93;;
24483;SDS011;12643;51.620;7.548;2023-06-26T09:49:51;16.90;;;6.05;;
24483;SDS011;12643;51.620;7.548;2023-06-26T09:52:20;15.88;;;5.63;;
24483;SDS011;12643;51.620;7.548;2023-06-26T09:55:08;18.02;;;5.90;;
24483;SDS011;12643;51.620;7.548;2023-06-26T09:57:39;11.82;;;4.90;;
24483;SDS011;12643;51.620;7.548;2023-06-26T10:00:11;9.63;;;4.80;;
24483;SDS011;12643;51.620;7.548;2023-06-26T10:02:40;11.18;;;5.15;;
24483;SDS011;12643;51.620;7.548;2023-06-26T10:05:08;12.13;;;4.88;;
24483;SDS011;12643;51.620;7.548;2023-06-26T10:07:37;12.45;;;5.32;;
24483;SDS011;12643;51.620;7.548;2023-06-26T10:10:07;14.30;;;5.50;;
24483;SDS011;12643;51.620;7.548;2023-06-26T10:15:05;12.63;;;5.32;;
24483;SDS011;12643;51.620;7.548;2023-06-26T10:17:38;9.13;;;4.53;;
24483;SDS011;12643;51.620;7.548;2023-06-26T10:20:08;8.93;;;4.43;;
24483;SDS011;12643;51.620;7.548;2023-06-26T10:22:37;9.65;;;4.07;;
24483;SDS011;12643;51.620;7.548;2023-06-26T10:25:10;6.18;;;3.97;;
24483;SDS011;12643;51.620;7.548;2023-06-26T10:27:47;10.90;;;4.45;;
24483;SDS011;12643;51.620;7.548;2023-06-26T10:30:20;10.13;;;4.35;;
24483;SDS011;12643;51.620;7.548;2023-06-26T10:32:51;8.23;;;4.40;;
24483;SDS011;12643;51.620;7.548;2023-06-26T10:35:20;9.25;;;3.97;;
24483;SDS011;12643;51.620;7.548;2023-06-26T10:37:50;9.48;;;4.68;;
24483;SDS011;12643;51.620;7.548;2023-06-26T10:40:24;9.80;;;4.45;;
24483;SDS011;12643;51.620;7.548;2023-06-26T10:43:05;8.88;;;3.45;;
24483;SDS011;12643;51.620;7.548;2023-06-26T10:45:34;7.68;;;3.85;;
24483;SDS011;12643;51.620;7.548;2023-06-26T10:48:03;10.85;;;3.88;;
24483;SDS011;12643;51.620;7.548;2023-06-26T10:50:31;10.52;;;3.58;;
24483;SDS011;12643;51.620;7.548;2023-06-26T10:53:10;8.30;;;4.32;;
24483;SDS011;12643;51.620;7.548;2023-06-26T10:55:49;8.60;;;3.60;;
24483;SDS011;12643;51.620;7.548;2023-06-26T10:58:31;8.50;;;3.65;;
24483;SDS011;12643;51.620;7.548;2023-06-26T11:04:04;9.90;;;4.80;;
24483;SDS011;12643;51.620;7.548;2023-06-26T11:06:33;5.70;;;3.65;;
24483;SDS011;12643;51.620;7.548;2023-06-26T11:09:08;6.03;;;2.75;;
24483;SDS011;12643;51.620;7.548;2023-06-26T11:11:58;5.10;;;2.90;;
24483;SDS011;12643;51.620;7.548;2023-06-26T11:14:32;6.43;;;3.65;;
24483;SDS011;12643;51.620;7.548;2023-06-26T11:17:02;5.90;;;3.38;;
24483;SDS011;12643;51.620;7.548;2023-06-26T11:19:31;8.10;;;3.40;;
24483;SDS011;12643;51.620;7.548;2023-06-26T11:21:59;6.93;;;3.13;;
24483;SDS011;12643;51.620;7.548;2023-06-26T11:24:31;4.55;;;3.15;;
24483;SDS011;12643;51.620;7.548;2023-06-26T11:29:31;5.60;;;2.35;;
24483;SDS011;12643;51.620;7.548;2023-06-26T11:32:00;4.22;;;2.92;;
24483;SDS011;12643;51.620;7.548;2023-06-26T11:34:31;11.00;;;3.80;;
24483;SDS011;12643;51.620;7.548;2023-06-26T11:37:00;6.80;;;3.38;;
24483;SDS011;12643;51.620;7.548;2023-06-26T11:39:29;9.73;;;3.72;;
24483;SDS011;12643;51.620;7.548;2023-06-26T11:41:59;9.75;;;3.53;;
24483;SDS011;12643;51.620;7.548;2023-06-26T11:44:32;4.78;;;3.50;;
24483;SDS011;12643;51.620;7.548;2023-06-26T11:47:06;9.88;;;3.35;;
24483;SDS011;12643;51.620;7.548;2023-06-26T11:49:34;7.65;;;3.80;;
24483;SDS011;12643;51.620;7.548;2023-06-26T11:52:03;9.25;;;3.72;;
24483;SDS011;12643;51.620;7.548;2023-06-26T11:54:31;7.95;;;4.03;;
24483;SDS011;12643;51.620;7.548;2023-06-26T11:57:00;4.60;;;3.33;;
24483;SDS011;12643;51.620;7.548;2023-06-26T11:59:33;6.50;;;3.80;;
24483;SDS011;12643;51.620;7.548;2023-06-26T12:02:05;6.95;;;3.50;;
24483;SDS011;12643;51.620;7.548;2023-06-26T12:04:35;6.63;;;3.25;;
24483;SDS011;12643;51.620;7.548;2023-06-26T12:07:04;6.30;;;3.13;;
24483;SDS011;12643;51.620;7.548;2023-06-26T12:09:37;11.45;;;3.17;;
24483;SDS011;12643;51.620;7.548;2023-06-26T12:12:08;7.15;;;2.85;;
24483;SDS011;12643;51.620;7.548;2023-06-26T12:14:39;3.15;;;2.47;;
24483;SDS011;12643;51.620;7.548;2023-06-26T12:17:08;4.63;;;2.60;;
24483;SDS011;12643;51.620;7.548;2023-06-26T12:19:37;9.37;;;2.67;;
24483;SDS011;12643;51.620;7.548;2023-06-26T12:22:06;5.15;;;2.92;;
24483;SDS011;12643;51.620;7.548;2023-06-26T12:24:37;7.75;;;2.88;;
24483;SDS011;12643;51.620;7.548;2023-06-26T12:27:09;4.85;;;2.95;;
24483;SDS011;12643;51.620;7.548;2023-06-26T12:29:50;6.40;;;2.90;;
24483;SDS011;12643;51.620;7.548;2023-06-26T12:32:21;6.63;;;2.35;;
24483;SDS011;12643;51.620;7.548;2023-06-26T12:34:51;5.90;;;2.60;;
24483;SDS011;12643;51.620;7.548;2023-06-26T12:37:19;9.32;;;2.92;;
24483;SDS011;12643;51.620;7.548;2023-06-26T12:39:48;3.47;;;1.98;;
24483;SDS011;12643;51.620;7.548;2023-06-26T12:42:17;10.23;;;2.55;;
24483;SDS011;12643;51.620;7.548;2023-06-26T12:44:47;5.05;;;2.25;;
24483;SDS011;12643;51.620;7.548;2023-06-26T12:47:16;5.68;;;2.30;;
24483;SDS011;12643;51.620;7.548;2023-06-26T12:49:45;6.13;;;2.00;;
24483;SDS011;12643;51.620;7.548;2023-06-26T12:52:16;4.35;;;1.70;;
24483;SDS011;12643;51.620;7.548;2023-06-26T12:54:45;6.25;;;1.95;;
24483;SDS011;12643;51.620;7.548;2023-06-26T12:57:17;3.90;;;1.90;;
24483;SDS011;12643;51.620;7.548;2023-06-26T12:59:45;3.00;;;1.92;;
24483;SDS011;12643;51.620;7.548;2023-06-26T13:02:15;6.97;;;2.10;;
24483;SDS011;12643;51.620;7.548;2023-06-26T13:04:43;2.20;;;1.48;;
24483;SDS011;12643;51.620;7.548;2023-06-26T13:07:11;2.72;;;1.30;;
24483;SDS011;12643;51.620;7.548;2023-06-26T13:09:39;3.33;;;1.40;;
24483;SDS011;12643;51.620;7.548;2023-06-26T13:12:07;5.57;;;1.70;;
24483;SDS011;12643;51.620;7.548;2023-06-26T13:14:35;5.55;;;1.38;;
24483;SDS011;12643;51.620;7.548;2023-06-26T13:17:05;2.92;;;1.30;;
24483;SDS011;12643;51.620;7.548;2023-06-26T13:19:33;2.75;;;1.48;;
24483;SDS011;12643;51.620;7.548;2023-06-26T13:22:01;7.53;;;1.50;;
24483;SDS011;12643;51.620;7.548;2023-06-26T13:24:30;5.40;;;1.90;;
24483;SDS011;12643;51.620;7.548;2023-06-26T13:26:58;3.67;;;1.45;;
24483;SDS011;12643;51.620;7.548;2023-06-26T13:29:28;3.72;;;1.65;;
24483;SDS011;12643;51.620;7.548;2023-06-26T13:31:56;3.50;;;1.58;;
24483;SDS011;12643;51.620;7.548;2023-06-26T13:34:27;3.78;;;1.65;;
24483;SDS011;12643;51.620;7.548;2023-06-26T13:36:55;5.93;;;1.73;;
24483;SDS011;12643;51.620;7.548;2023-06-26T13:39:25;2.78;;;1.40;;
24483;SDS011;12643;51.620;7.548;2023-06-26T13:41:53;2.85;;;1.70;;
24483;SDS011;12643;51.620;7.548;2023-06-26T13:44:21;3.47;;;1.75;;
24483;SDS011;12643;51.620;7.548;2023-06-26T13:46:49;7.65;;;1.85;;
24483;SDS011;12643;51.620;7.548;2023-06-26T13:49:19;4.25;;;1.85;;
24483;SDS011;12643;51.620;7.548;2023-06-26T13:51:48;3.90;;;1.65;;
24483;SDS011;12643;51.620;7.548;2023-06-26T13:54:16;6.75;;;1.60;;
24483;SDS011;12643;51.620;7.548;2023-06-26T13:56:44;3.35;;;1.70;;
24483;SDS011;12643;51.620;7.548;2023-06-26T13:59:12;6.70;;;1.80;;
24483;SDS011;12643;51.620;7.548;2023-06-26T14:01:40;4.97;;;1.90;;
24483;SDS011;12643;51.620;7.548;2023-06-26T14:04:09;7.88;;;1.73;;
24483;SDS011;12643;51.620;7.548;2023-06-26T14:06:37;5.82;;;1.90;;
24483;SDS011;12643;51.620;7.548;2023-06-26T14:09:10;4.57;;;1.50;;
24483;SDS011;12643;51.620;7.548;2023-06-26T14:11:38;4.45;;;1.55;;
24483;SDS011;12643;51.620;7.548;2023-06-26T14:14:06;3.10;;;1.90;;
24483;SDS011;12643;51.620;7.548;2023-06-26T14:16:34;5.85;;;1.77;;
24483;SDS011;12643;51.620;7.548;2023-06-26T14:19:03;6.75;;;2.00;;
24483;SDS011;12643;51.620;7.548;2023-06-26T14:21:32;6.30;;;2.10;;
24483;SDS011;12643;51.620;7.548;2023-06-26T14:24:00;5.13;;;1.75;;
24483;SDS011;12643;51.620;7.548;2023-06-26T14:26:29;7.50;;;1.92;;
24483;SDS011;12643;51.620;7.548;2023-06-26T14:29:02;8.80;;;1.80;;
24483;SDS011;12643;51.620;7.548;2023-06-26T14:31:31;7.35;;;1.70;;
24483;SDS011;12643;51.620;7.548;2023-06-26T14:33:59;5.88;;;1.48;;
24483;SDS011;12643;51.620;7.548;2023-06-26T14:36:28;4.72;;;1.35;;
24483;SDS011;12643;51.620;7.548;2023-06-26T14:38:58;3.53;;;1.75;;
24483;SDS011;12643;51.620;7.548;2023-06-26T14:41:27;3.75;;;1.70;;
24483;SDS011;12643;51.620;7.548;2023-06-26T14:43:56;6.68;;;1.77;;
24483;SDS011;12643;51.620;7.548;2023-06-26T14:46:24;5.05;;;1.80;;
24483;SDS011;12643;51.620;7.548;2023-06-26T14:48:52;7.82;;;1.98;;
24483;SDS011;12643;51.620;7.548;2023-06-26T14:51:21;3.00;;;1.45;;
24483;SDS011;12643;51.620;7.548;2023-06-26T14:53:50;4.90;;;1.83;;
24483;SDS011;12643;51.620;7.548;2023-06-26T14:56:18;5.80;;;1.73;;
24483;SDS011;12643;51.620;7.548;2023-06-26T14:58:49;3.20;;;1.60;;
24483;SDS011;12643;51.620;7.548;2023-06-26T15:01:18;2.63;;;1.55;;
24483;SDS011;12643;51.620;7.548;2023-06-26T15:03:46;3.40;;;1.90;;